New Home, Texas
Current Conditions -  °F | °C
As of 12:53 PM on Saturday 25 Oct 2014 (Local Time) from KLBB Reporting Station
Clear Clear  
Wind Chill: 81°   Ceiling: Unl
Heat Index: 81°   Visibility: 10mi
Dew Point: 54°   Wind: 10mph
Humidity: 39%   Direction: 210°SSW
Pressure: 30.19"   Gusts: NA
Location:  33.33°N, 101.91°W
Report Text: KLBB 251753Z 21009KT 10SM CLR 27/12 A3019 RMK AO2 SLP179 T02720122 10272 20117 58008 $
Loading
Personal Weather Stations






























Interactive Weather Map
Tropical Storm Tracking
New forecast layout! Learn more

10-Day Weather Forecast

Advertisements
Track Severe Weather on mobile